Time;durP1;ratioP1;P1;durP2;ratioP2;P2;SDS_P1;SDS_P2;PMS_P1;PMS_P2;Temp;Humidity;BMP_temperature;BMP_pressure;BME280_temperature;BME280_humidity;BME280_pressure;Samples;Min_cycle;Max_cycle;Signal;HPM_P1;HPM_P2
2022/12/01 00:00:35;;;;;;;0.00;0.00;;;5.60;99.90;;;;;;5011245;28;20038;-62
2022/12/01 00:03:01;;;;;;;0.00;0.00;;;5.50;99.90;;;;;;5010977;28;20026;-62
2022/12/01 00:05:26;;;;;;;0.00;0.00;;;5.50;99.90;;;;;;5009602;28;20030;-63
2022/12/01 00:07:52;;;;;;;0.00;0.00;;;5.50;99.90;;;;;;5011110;28;20077;-63
2022/12/01 00:10:27;;;;;;;0.00;0.00;;;5.50;99.90;;;;;;5010837;28;20064;-63
2022/12/01 00:12:58;;;;;;;0.00;0.00;;;5.30;99.90;;;;;;5007074;28;20034;-63
2022/12/01 00:15:33;;;;;;;0.00;0.00;;;5.10;99.90;;;;;;5008349;28;20032;-63
2022/12/01 00:18:00;;;;;;;0.00;0.00;;;5.00;99.90;;;;;;5010537;28;20120;-63
2022/12/01 00:20:26;;;;;;;0.00;0.00;;;4.90;99.90;;;;;;5011194;28;20061;-63
2022/12/01 00:22:51;;;;;;;0.00;0.00;;;4.80;99.90;;;;;;5008846;28;20565;-63
2022/12/01 00:25:19;;;;;;;0.00;0.00;;;4.70;99.90;;;;;;5005742;28;20029;-63
2022/12/01 00:27:51;;;;;;;0.00;0.00;;;4.70;99.90;;;;;;5007638;28;20034;-62
2022/12/01 00:30:19;;;;;;;0.00;0.00;;;4.60;99.90;;;;;;5005973;28;20124;-63
2022/12/01 00:32:45;;;;;;;0.00;0.00;;;4.50;99.90;;;;;;5005996;28;20034;-62
2022/12/01 00:35:12;;;;;;;0.00;0.00;;;4.50;99.90;;;;;;5006908;28;20384;-62
2022/12/01 00:37:38;;;;;;;0.00;0.00;;;4.40;99.90;;;;;;5007534;28;20361;-62
2022/12/01 00:40:05;;;;;;;0.00;0.00;;;4.40;99.90;;;;;;5006445;28;20044;-63
2022/12/01 00:42:31;;;;;;;0.00;0.00;;;4.40;99.90;;;;;;5005568;28;20111;-63
2022/12/01 00:44:56;;;;;;;0.00;0.00;;;4.40;99.90;;;;;;5009616;28;20041;-62
2022/12/01 00:47:22;;;;;;;0.00;0.00;;;4.40;99.90;;;;;;5013883;28;20113;-62
2022/12/01 00:49:48;;;;;;;0.00;0.00;;;4.40;99.90;;;;;;5006266;28;20476;-63
2022/12/01 00:52:15;;;;;;;0.00;0.00;;;4.50;99.90;;;;;;5006227;28;20036;-63
2022/12/01 00:54:41;;;;;;;0.00;0.00;;;4.70;99.90;;;;;;5008525;28;20357;-63
2022/12/01 00:57:07;;;;;;;0.00;0.00;;;4.80;99.90;;;;;;5007855;28;20132;-62
2022/12/01 00:59:34;;;;;;;0.00;0.00;;;4.80;99.90;;;;;;5008597;28;20081;-62
2022/12/01 01:02:04;;;;;;;0.00;0.00;;;4.90;99.90;;;;;;5010117;28;20088;-62
2022/12/01 01:04:31;;;;;;;0.00;0.00;;;5.00;99.90;;;;;;5011311;28;20030;-63
2022/12/01 01:06:57;;;;;;;0.00;0.00;;;5.00;99.90;;;;;;5006612;28;20034;-64
2022/12/01 01:09:22;;;;;;;0.00;0.00;;;4.90;99.90;;;;;;5008452;28;20032;-62
2022/12/01 01:11:48;;;;;;;0.00;0.00;;;4.80;99.90;;;;;;5010448;28;20325;-63
2022/12/01 01:14:14;;;;;;;0.00;0.00;;;4.90;99.90;;;;;;5011633;28;20041;-63
2022/12/01 01:16:40;;;;;;;0.00;0.00;;;4.80;99.90;;;;;;5012078;28;20034;-63
2022/12/01 01:19:06;;;;;;;0.00;0.00;;;4.80;99.90;;;;;;5021423;28;20053;-63
2022/12/01 01:21:31;;;;;;;0.00;0.00;;;4.70;99.90;;;;;;5013318;28;20038;-64
2022/12/01 01:23:57;;;;;;;0.00;0.00;;;4.80;99.90;;;;;;5012555;28;20036;-63
2022/12/01 01:26:25;;;;;;;0.00;0.00;;;4.90;99.90;;;;;;5014798;28;20052;-63
2022/12/01 01:28:52;;;;;;;0.00;0.00;;;4.80;99.90;;;;;;5011705;28;20096;-61
2022/12/01 01:31:22;;;;;;;0.00;0.00;;;4.90;99.90;;;;;;5000402;28;20413;-64
2022/12/01 01:33:48;;;;;;;0.00;0.00;;;5.00;99.90;;;;;;5014150;28;20105;-63
2022/12/01 01:36:15;;;;;;;0.00;0.00;;;4.80;99.90;;;;;;5014524;28;20105;-63
2022/12/01 01:38:41;;;;;;;0.00;0.00;;;4.80;99.90;;;;;;5013384;28;20030;-63
2022/12/01 01:41:08;;;;;;;0.00;0.00;;;4.80;99.90;;;;;;5014129;28;20118;-63
2022/12/01 01:43:41;;;;;;;0.00;0.00;;;4.90;99.90;;;;;;5013484;28;20164;-63
2022/12/01 01:46:13;;;;;;;0.00;0.00;;;4.80;99.90;;;;;;5013042;28;20515;-63
2022/12/01 01:48:42;;;;;;;0.00;0.00;;;4.80;99.90;;;;;;5012376;28;20041;-62
2022/12/01 01:51:10;;;;;;;0.00;0.00;;;4.70;99.90;;;;;;5011464;28;20026;-62
2022/12/01 01:53:36;;;;;;;0.00;0.00;;;4.70;99.90;;;;;;5009703;28;20470;-63
2022/12/01 01:56:02;;;;;;;0.00;0.00;;;4.70;99.90;;;;;;5007621;28;20036;-63
2022/12/01 01:58:29;;;;;;;0.00;0.00;;;4.70;99.90;;;;;;5014455;28;20388;-62
2022/12/01 02:00:55;;;;;;;0.00;0.00;;;4.80;99.90;;;;;;5013566;28;20045;-62
2022/12/01 02:03:21;;;;;;;0.00;0.00;;;4.80;99.90;;;;;;5003061;28;20026;-63
2022/12/01 02:05:47;;;;;;;0.00;0.00;;;5.00;99.90;;;;;;5009387;28;20025;-62
2022/12/01 02:08:12;;;;;;;0.00;0.00;;;5.10;99.90;;;;;;5014367;28;20601;-63
2022/12/01 02:11:10;;;;;;;0.00;0.00;;;5.10;99.90;;;;;;5013159;28;20392;-63
2022/12/01 02:13:57;;;;;;;0.00;0.00;;;5.20;99.90;;;;;;5011792;28;20052;-63
2022/12/01 02:16:43;;;;;;;0.00;0.00;;;5.10;99.90;;;;;;5013500;28;20038;-63
2022/12/01 02:20:02;;;;;;;0.00;0.00;;;5.00;99.90;;;;;;5010390;28;20076;-63
2022/12/01 02:22:59;;;;;;;0.00;0.00;;;4.90;99.90;;;;;;5007049;28;20034;-63
2022/12/01 02:25:40;;;;;;;0.00;0.00;;;4.90;99.90;;;;;;5003714;28;20030;-63
2022/12/01 02:28:34;;;;;;;0.00;0.00;;;4.70;99.90;;;;;;5025698;28;20406;-63
2022/12/01 02:31:05;;;;;;;0.00;0.00;;;4.60;99.90;;;;;;5012854;28;20392;-61
2022/12/01 02:33:50;;;;;;;0.00;0.00;;;4.70;99.90;;;;;;5012097;28;20033;-63
2022/12/01 02:36:42;;;;;;;0.00;0.00;;;4.60;99.90;;;;;;5011660;28;20026;-63
2022/12/01 02:39:19;;;;;;;0.00;0.00;;;4.50;99.90;;;;;;5011937;28;20368;-63
2022/12/01 02:41:50;;;;;;;0.00;0.00;;;4.40;99.90;;;;;;5012556;28;20036;-63
2022/12/01 02:44:24;;;;;;;0.00;0.00;;;4.40;99.90;;;;;;5010905;28;20034;-63
2022/12/01 02:47:09;;;;;;;0.00;0.00;;;4.50;99.90;;;;;;5012647;28;20034;-63
2022/12/01 02:49:40;;;;;;;0.00;0.00;;;4.40;99.90;;;;;;5009050;28;20037;-62
2022/12/01 02:52:06;;;;;;;0.00;0.00;;;4.50;99.90;;;;;;5010631;28;20042;-62
2022/12/01 02:54:32;;;;;;;0.00;0.00;;;4.40;99.90;;;;;;5008456;28;20478;-62
2022/12/01 02:56:58;;;;;;;0.00;0.00;;;4.50;99.90;;;;;;5007782;28;20065;-63
2022/12/01 02:59:24;;;;;;;0.00;0.00;;;4.70;99.90;;;;;;5010894;28;20068;-61
2022/12/01 03:02:14;;;;;;;0.00;0.00;;;4.70;99.90;;;;;;5009929;28;20704;-62
2022/12/01 03:05:04;;;;;;;0.00;0.00;;;4.70;99.90;;;;;;5009142;28;20037;-62
2022/12/01 03:07:45;;;;;;;0.00;0.00;;;4.70;99.90;;;;;;4999953;28;20610;-62
2022/12/01 03:10:26;;;;;;;0.00;0.00;;;4.70;99.90;;;;;;5007454;28;20026;-63
2022/12/01 03:13:22;;;;;;;0.00;0.00;;;4.90;99.90;;;;;;5010122;28;20558;-62
2022/12/01 03:16:03;;;;;;;0.00;0.00;;;4.90;99.90;;;;;;5007467;28;20049;-63
2022/12/01 03:18:37;;;;;;;0.00;0.00;;;4.90;99.90;;;;;;5009600;28;20072;-63
2022/12/01 03:21:20;;;;;;;0.00;0.00;;;4.80;99.90;;;;;;5008536;28;20026;-63
2022/12/01 03:23:51;;;;;;;0.00;0.00;;;4.80;99.90;;;;;;5009836;28;20026;-62
2022/12/01 03:26:20;;;;;;;0.00;0.00;;;4.70;99.90;;;;;;5009916;28;20026;-62
2022/12/01 03:28:54;;;;;;;0.00;0.00;;;4.70;99.90;;;;;;5005765;28;20479;-62
2022/12/01 03:31:24;;;;;;;0.00;0.00;;;4.80;99.90;;;;;;5009519;28;20053;-62
2022/12/01 03:34:21;;;;;;;0.00;0.00;;;4.70;99.90;;;;;;5008368;28;20038;-63
2022/12/01 03:36:52;;;;;;;0.00;0.00;;;4.70;99.90;;;;;;5006447;28;20137;-63
2022/12/01 03:39:23;;;;;;;0.00;0.00;;;4.70;99.90;;;;;;5007811;28;20124;-62
2022/12/01 03:41:58;;;;;;;0.00;0.00;;;4.70;99.90;;;;;;5009301;28;20088;-62
2022/12/01 03:44:30;;;;;;;0.00;0.00;;;4.80;99.90;;;;;;4997199;28;20103;-62
2022/12/01 03:47:02;;;;;;;0.00;0.00;;;4.90;99.90;;;;;;5005513;28;20038;-63
2022/12/01 03:49:28;;;;;;;0.00;0.00;;;4.80;99.90;;;;;;5007326;28;20038;-62
2022/12/01 03:52:33;;;;;;;0.00;0.00;;;4.90;99.90;;;;;;5009444;28;20018;-63
2022/12/01 03:55:08;;;;;;;0.00;0.00;;;4.90;99.90;;;;;;5007521;28;20701;-62
2022/12/01 03:57:55;;;;;;;0.00;0.00;;;5.00;99.90;;;;;;5005503;28;20080;-62
2022/12/01 04:00:22;;;;;;;0.00;0.00;;;5.10;99.90;;;;;;5004955;28;20069;-62
2022/12/01 04:02:52;;;;;;;0.00;0.00;;;5.20;99.90;;;;;;5001403;28;20036;-62
2022/12/01 04:05:18;;;;;;;0.00;0.00;;;5.10;99.90;;;;;;5009654;28;20068;-63
2022/12/01 04:07:43;;;;;;;0.00;0.00;;;5.10;99.90;;;;;;5009877;28;20065;-63
2022/12/01 04:10:09;;;;;;;0.00;0.00;;;5.10;99.90;;;;;;5006694;28;20030;-62
2022/12/01 04:12:35;;;;;;;0.00;0.00;;;5.10;99.90;;;;;;5011047;28;20451;-63
2022/12/01 04:15:11;;;;;;;0.00;0.00;;;5.10;99.90;;;;;;5006670;28;20091;-63
2022/12/01 04:17:38;;;;;;;0.00;0.00;;;5.20;99.90;;;;;;5008592;28;20495;-63
2022/12/01 04:20:05;;;;;;;0.00;0.00;;;4.90;99.90;;;;;;5003768;28;20112;-63
2022/12/01 04:22:32;;;;;;;0.00;0.00;;;4.80;99.90;;;;;;5007006;28;20064;-63
2022/12/01 04:24:58;;;;;;;0.00;0.00;;;5.00;99.90;;;;;;5008802;28;20107;-63
2022/12/01 04:27:24;;;;;;;0.00;0.00;;;5.00;99.90;;;;;;5007283;28;20557;-63
2022/12/01 04:29:49;;;;;;;0.00;0.00;;;5.00;99.90;;;;;;5010000;28;20209;-63
2022/12/01 04:32:15;;;;;;;0.00;0.00;;;4.90;99.90;;;;;;5007072;28;20468;-63
2022/12/01 04:34:41;;;;;;;0.00;0.00;;;4.90;99.90;;;;;;5005444;28;20038;-63
2022/12/01 04:37:08;;;;;;;0.00;0.00;;;4.80;99.90;;;;;;5007140;28;20036;-63
2022/12/01 04:39:34;;;;;;;0.00;0.00;;;4.80;99.90;;;;;;5004650;28;20045;-62
2022/12/01 04:42:00;;;;;;;0.00;0.00;;;4.80;99.90;;;;;;5003350;28;20478;-62
2022/12/01 04:44:26;;;;;;;0.00;0.00;;;4.80;99.90;;;;;;5005295;28;20037;-62
2022/12/01 04:46:52;;;;;;;;;;;4.80;99.90;;;;;;5008357;28;20025;-62
2022/12/01 04:49:19;;;;;;;0.00;0.00;;;4.90;99.90;;;;;;5007327;28;20016;-63
2022/12/01 04:51:44;;;;;;;0.00;0.00;;;5.00;99.90;;;;;;5008464;28;20020;-63
2022/12/01 04:54:10;;;;;;;0.00;0.00;;;4.90;99.90;;;;;;5009202;28;20026;-63
2022/12/01 04:56:36;;;;;;;0.00;0.00;;;4.90;99.90;;;;;;5006834;28;20057;-63
2022/12/01 04:59:02;;;;;;;0.00;0.00;;;4.90;99.90;;;;;;5009748;28;20400;-64
2022/12/01 05:01:28;;;;;;;0.00;0.00;;;4.90;99.90;;;;;;5004948;28;20026;-64
2022/12/01 05:03:53;;;;;;;0.00;0.00;;;4.90;99.90;;;;;;5009274;28;20515;-64
2022/12/01 05:06:22;;;;;;;0.00;0.00;;;4.90;99.90;;;;;;5001276;28;20038;-65
2022/12/01 05:08:48;;;;;;;0.00;0.00;;;4.70;99.90;;;;;;5004275;28;20140;-64
2022/12/01 05:11:14;;;;;;;0.00;0.00;;;4.60;99.90;;;;;;5009602;28;20507;-64
2022/12/01 05:13:42;;;;;;;0.00;0.00;;;4.60;99.90;;;;;;5007041;28;20061;-64
2022/12/01 05:16:23;;;;;;;0.00;0.00;;;4.40;99.90;;;;;;5007090;28;20057;-64
2022/12/01 05:18:49;;;;;;;0.00;0.00;;;4.40;99.90;;;;;;5007663;28;20018;-64
2022/12/01 05:21:16;;;;;;;0.00;0.00;;;4.50;99.90;;;;;;5009249;28;20050;-65
2022/12/01 05:23:43;;;;;;;0.00;0.00;;;4.60;99.90;;;;;;5009328;28;20026;-64
2022/12/01 05:26:09;;;;;;;0.00;0.00;;;4.60;99.90;;;;;;5008616;28;20022;-63
2022/12/01 05:28:34;;;;;;;0.00;0.00;;;4.50;99.90;;;;;;5009674;28;20191;-63
2022/12/01 05:31:00;;;;;;;0.00;0.00;;;4.50;99.90;;;;;;5011940;28;20056;-63
2022/12/01 05:33:27;;;;;;;0.00;0.00;;;4.60;99.90;;;;;;5010435;28;20029;-64
2022/12/01 05:35:53;;;;;;;0.00;0.00;;;4.60;99.90;;;;;;5010102;28;20026;-64
2022/12/01 05:38:19;;;;;;;0.00;0.00;;;4.60;99.90;;;;;;5010962;28;20029;-64
2022/12/01 05:40:52;;;;;;;;;;;4.60;99.90;;;;;;5010427;28;20030;-63
2022/12/01 05:43:19;;;;;;;0.00;0.00;;;4.60;99.90;;;;;;5003642;28;20426;-63
2022/12/01 05:45:45;;;;;;;0.00;0.00;;;4.70;99.90;;;;;;5005559;28;20392;-64
2022/12/01 05:48:10;;;;;;;0.00;0.00;;;4.70;99.90;;;;;;5005716;28;20030;-63
2022/12/01 05:50:38;;;;;;;0.00;0.00;;;4.70;99.90;;;;;;5006195;28;20488;-63
2022/12/01 05:53:04;;;;;;;0.00;0.00;;;4.70;99.90;;;;;;5009553;28;20032;-64
2022/12/01 05:55:32;;;;;;;0.00;0.00;;;4.80;99.90;;;;;;5010453;28;20037;-64
2022/12/01 05:57:57;;;;;;;0.00;0.00;;;4.70;99.90;;;;;;5013604;28;20038;-63
2022/12/01 06:00:23;;;;;;;0.00;0.00;;;4.80;99.90;;;;;;5013425;28;20116;-63
2022/12/01 06:02:49;;;;;;;0.00;0.00;;;4.70;99.90;;;;;;5008845;28;20026;-61
2022/12/01 06:05:14;;;;;;;0.00;0.00;;;4.50;99.90;;;;;;5013473;28;20113;-64
2022/12/01 06:07:40;;;;;;;0.00;0.00;;;4.40;99.90;;;;;;5011296;28;20100;-63
2022/12/01 06:10:08;;;;;;;0.00;0.00;;;4.40;99.90;;;;;;5010434;28;20112;-63
2022/12/01 06:12:33;;;;;;;0.00;0.00;;;4.50;99.90;;;;;;5011639;28;20092;-64
2022/12/01 06:14:59;;;;;;;0.00;0.00;;;4.50;99.90;;;;;;5016740;28;20049;-63
2022/12/01 06:17:25;;;;;;;0.00;0.00;;;4.60;99.90;;;;;;5009274;28;20120;-65
2022/12/01 06:19:50;;;;;;;0.00;0.00;;;4.50;99.90;;;;;;5009429;28;20184;-64
2022/12/01 06:22:16;;;;;;;0.00;0.00;;;4.50;99.90;;;;;;5012385;28;20025;-63
2022/12/01 06:24:41;;;;;;;0.00;0.00;;;4.60;99.90;;;;;;5007579;28;20038;-62
2022/12/01 06:27:07;;;;;;;0.00;0.00;;;4.60;99.90;;;;;;5010191;28;20116;-63
2022/12/01 06:29:33;;;;;;;0.00;0.00;;;4.60;99.90;;;;;;5022393;28;20044;-63
2022/12/01 06:31:58;;;;;;;0.00;0.00;;;4.60;99.90;;;;;;5012526;28;20116;-63
2022/12/01 06:34:24;;;;;;;0.00;0.00;;;4.70;99.90;;;;;;5013215;28;20057;-63
2022/12/01 06:36:49;;;;;;;0.00;0.00;;;4.70;99.90;;;;;;5015862;28;20030;-63
2022/12/01 06:39:16;;;;;;;0.00;0.00;;;4.70;99.90;;;;;;5012021;28;20022;-63
2022/12/01 06:41:42;;;;;;;0.00;0.00;;;4.70;99.90;;;;;;5013411;28;20073;-63
2022/12/01 06:44:08;;;;;;;0.00;0.00;;;4.80;99.90;;;;;;5013530;28;20026;-63
2022/12/01 06:46:34;;;;;;;0.00;0.00;;;4.90;99.90;;;;;;5011804;28;20026;-64
2022/12/01 06:48:59;;;;;;;0.00;0.00;;;4.90;99.90;;;;;;5007273;28;20056;-63
2022/12/01 06:51:25;;;;;;;0.00;0.00;;;4.90;99.90;;;;;;5008239;28;20097;-63
2022/12/01 06:53:54;;;;;;;0.00;0.00;;;5.10;99.90;;;;;;5008212;28;20511;-63
2022/12/01 06:56:21;;;;;;;0.00;0.00;;;5.20;99.90;;;;;;5006609;28;20133;-62
2022/12/01 06:58:49;;;;;;;0.00;0.00;;;5.20;99.90;;;;;;5004790;28;20034;-62
2022/12/01 07:01:16;;;;;;;0.00;0.00;;;5.30;99.90;;;;;;5018192;28;20153;-63
2022/12/01 07:03:42;;;;;;;0.00;0.00;;;5.30;99.90;;;;;;5010973;28;20482;-62
2022/12/01 07:06:08;;;;;;;0.00;0.00;;;5.10;99.90;;;;;;5005181;28;20105;-62
2022/12/01 07:08:34;;;;;;;0.00;0.00;;;5.10;99.90;;;;;;5005873;28;20496;-62
2022/12/01 07:11:02;;;;;;;0.00;0.00;;;5.10;99.90;;;;;;5008429;28;20122;-63
2022/12/01 07:13:28;;;;;;;0.00;0.00;;;5.20;99.90;;;;;;5011311;28;20030;-63
2022/12/01 07:15:54;;;;;;;0.00;0.00;;;5.10;99.90;;;;;;5011307;28;20022;-63
2022/12/01 07:18:19;;;;;;;0.00;0.00;;;4.90;99.90;;;;;;5019303;28;20028;-63
2022/12/01 07:20:45;;;;;;;0.00;0.00;;;4.90;99.90;;;;;;5011449;28;20514;-63
2022/12/01 07:23:11;;;;;;;0.00;0.00;;;5.00;99.90;;;;;;5012300;28;20503;-64
2022/12/01 07:25:36;;;;;;;0.00;0.00;;;5.10;99.90;;;;;;5011175;28;20148;-63
2022/12/01 07:28:02;;;;;;;0.00;0.00;;;5.10;99.90;;;;;;5010127;28;20037;-64
2022/12/01 07:30:28;;;;;;;0.00;0.00;;;5.10;99.90;;;;;;5012518;28;20030;-64
2022/12/01 07:32:53;;;;;;;0.00;0.00;;;5.20;99.90;;;;;;5009093;28;20090;-63
2022/12/01 07:35:19;;;;;;;0.00;0.00;;;5.10;99.90;;;;;;5010361;28;20109;-64
2022/12/01 07:37:45;;;;;;;0.00;0.00;;;5.10;99.90;;;;;;5012231;28;20480;-64
2022/12/01 07:40:11;;;;;;;0.00;0.00;;;5.30;99.90;;;;;;5011977;28;20033;-64
2022/12/01 07:42:40;;;;;;;0.00;0.00;;;5.40;99.90;;;;;;5012388;28;20448;-64
2022/12/01 07:45:06;;;;;;;0.00;0.00;;;5.40;99.90;;;;;;5008592;28;20026;-64
2022/12/01 07:47:32;;;;;;;0.00;0.00;;;5.40;99.90;;;;;;5009309;28;20031;-65
2022/12/01 07:49:57;;;;;;;0.00;0.00;;;5.40;99.90;;;;;;5010006;28;20407;-64
2022/12/01 07:52:23;;;;;;;0.00;0.00;;;5.40;99.90;;;;;;5010913;28;20029;-64
2022/12/01 07:54:48;;;;;;;0.00;0.00;;;5.50;99.90;;;;;;5008828;28;20030;-65
2022/12/01 07:57:14;;;;;;;0.00;0.00;;;5.50;99.90;;;;;;5010591;28;20076;-63
2022/12/01 07:59:40;;;;;;;0.00;0.00;;;5.30;99.90;;;;;;5008249;28;20048;-64
2022/12/01 08:02:07;;;;;;;0.00;0.00;;;5.20;99.90;;;;;;5008026;28;20904;-65
2022/12/01 08:04:33;;;;;;;0.00;0.00;;;5.20;99.90;;;;;;5005369;28;20559;-63
2022/12/01 08:06:58;;;;;;;0.00;0.00;;;5.20;99.90;;;;;;5004503;28;20121;-64
2022/12/01 08:09:24;;;;;;;0.00;0.00;;;5.40;99.90;;;;;;5006649;28;20038;-64
2022/12/01 08:11:49;;;;;;;0.00;0.00;;;5.50;99.90;;;;;;5012722;28;20143;-64
2022/12/01 08:14:15;;;;;;;0.00;0.00;;;5.50;99.90;;;;;;5011061;28;20207;-64
2022/12/01 08:16:41;;;;;;;0.00;0.00;;;5.40;99.90;;;;;;5003404;28;20057;-63
2022/12/01 08:19:09;;;;;;;0.00;0.00;;;5.20;99.90;;;;;;5005422;28;20032;-64
2022/12/01 08:21:36;;;;;;;0.00;0.00;;;5.10;99.90;;;;;;5007752;28;20532;-65
2022/12/01 08:24:02;;;;;;;0.00;0.00;;;5.00;99.90;;;;;;5007069;28;20492;-64
2022/12/01 08:26:28;;;;;;;0.00;0.00;;;5.10;99.90;;;;;;5009401;28;20029;-63
2022/12/01 08:28:54;;;;;;;0.00;0.00;;;5.10;99.90;;;;;;5005723;28;20541;-64
2022/12/01 08:31:22;;;;;;;0.00;0.00;;;5.10;99.90;;;;;;5004354;28;20030;-63
2022/12/01 08:33:49;;;;;;;0.00;0.00;;;5.10;99.90;;;;;;5007097;28;20448;-63
2022/12/01 08:36:16;;;;;;;0.00;0.00;;;5.20;99.90;;;;;;5006652;28;20369;-65
2022/12/01 08:38:43;;;;;;;0.00;0.00;;;5.20;99.90;;;;;;5007559;28;20505;-65
2022/12/01 08:41:10;;;;;;;0.00;0.00;;;5.20;99.90;;;;;;5008075;28;20022;-65
2022/12/01 08:43:41;;;;;;;0.00;0.00;;;5.30;99.90;;;;;;5008140;28;20038;-63
2022/12/01 08:46:07;;;;;;;0.00;0.00;;;5.30;99.90;;;;;;5003531;28;20108;-63
2022/12/01 08:48:34;;;;;;;0.00;0.00;;;5.30;99.90;;;;;;5006895;28;20056;-64
2022/12/01 08:51:05;;;;;;;0.00;0.00;;;5.40;99.90;;;;;;5005182;28;20018;-63
2022/12/01 08:53:32;;;;;;;0.00;0.00;;;5.40;99.90;;;;;;5021423;28;20030;-64
2022/12/01 08:56:04;;;;;;;0.00;0.00;;;5.40;99.90;;;;;;5009647;28;20026;-64
2022/12/01 08:58:30;;;;;;;0.00;0.00;;;5.30;99.90;;;;;;5006240;28;20116;-64
2022/12/01 09:01:06;;;;;;;0.00;0.00;;;5.50;99.90;;;;;;5004841;28;20377;-64
2022/12/01 09:03:33;;;;;;;0.00;0.00;;;5.70;99.90;;;;;;4989674;28;20037;-64
2022/12/01 09:06:06;;;;;;;0.00;0.00;;;5.60;99.90;;;;;;5008378;28;20026;-64
2022/12/01 09:08:34;;;;;;;0.00;0.00;;;5.60;99.90;;;;;;5003095;28;20141;-64
2022/12/01 09:11:06;;;;;;;0.00;0.00;;;5.40;99.90;;;;;;5004282;28;20034;-64
2022/12/01 09:13:35;;;;;;;0.00;0.00;;;5.40;99.90;;;;;;5002873;28;20484;-65
2022/12/01 09:16:04;;;;;;;0.00;0.00;;;5.50;99.90;;;;;;5006883;28;20040;-64
2022/12/01 09:18:30;;;;;;;0.00;0.00;;;5.40;99.90;;;;;;5007650;28;20033;-63
2022/12/01 09:20:57;;;;;;;0.00;0.00;;;5.30;99.90;;;;;;5006075;28;20539;-64
2022/12/01 09:23:23;;;;;;;0.00;0.00;;;5.40;99.90;;;;;;5007588;28;20089;-65
2022/12/01 09:25:49;;;;;;;;;;;5.30;99.90;;;;;;5001302;28;20388;-64
2022/12/01 09:28:16;;;;;;;0.00;0.00;;;5.30;99.90;;;;;;5008459;28;19979;-64
2022/12/01 09:30:43;;;;;;;0.00;0.00;;;5.30;99.90;;;;;;5007442;28;20025;-64
2022/12/01 09:33:09;;;;;;;0.00;0.00;;;5.40;99.90;;;;;;5012239;28;20033;-63
2022/12/01 09:35:35;;;;;;;0.00;0.00;;;5.40;99.90;;;;;;5000437;28;20030;-65
2022/12/01 09:38:00;;;;;;;0.00;0.00;;;5.30;99.90;;;;;;5007067;28;20025;-65
2022/12/01 09:40:38;;;;;;;0.00;0.00;;;5.20;99.90;;;;;;5008224;28;20041;-65
2022/12/01 09:43:14;;;;;;;0.00;0.00;;;5.40;99.90;;;;;;5006532;28;20381;-63
2022/12/01 09:45:44;;;;;;;0.00;0.00;;;5.60;99.90;;;;;;5010996;28;20025;-64
2022/12/01 09:48:41;;;;;;;0.00;0.00;;;5.70;99.90;;;;;;5012018;28;20397;-65
2022/12/01 09:51:27;;;;;;;0.00;0.00;;;5.80;99.90;;;;;;5001646;28;20124;-65
2022/12/01 09:53:58;;;;;;;0.00;0.00;;;5.60;99.90;;;;;;5010568;28;20057;-65
2022/12/01 09:56:35;;;;;;;0.00;0.00;;;5.70;99.90;;;;;;5007625;28;20026;-66
2022/12/01 09:59:06;;;;;;;0.00;0.00;;;5.70;99.90;;;;;;5012323;28;20032;-65
2022/12/01 10:01:40;;;;;;;0.00;0.00;;;5.80;99.90;;;;;;5002842;28;20051;-64
2022/12/01 10:04:15;;;;;;;0.00;0.00;;;5.80;99.90;;;;;;5003635;28;20033;-64
2022/12/01 10:06:55;;;;;;;0.00;0.00;;;5.80;99.90;;;;;;5002092;28;20018;-63
2022/12/01 10:09:43;;;;;;;0.00;0.00;;;5.70;99.90;;;;;;5008681;28;20131;-64
2022/12/01 10:12:14;;;;;;;0.00;0.00;;;5.60;99.90;;;;;;5007000;28;20049;-64
2022/12/01 10:14:43;;;;;;;0.00;0.00;;;5.70;99.90;;;;;;5006213;28;20445;-64
2022/12/01 10:17:11;;;;;;;0.00;0.00;;;5.80;99.90;;;;;;5007299;28;20030;-64
2022/12/01 10:19:40;;;;;;;0.00;0.00;;;5.90;99.90;;;;;;5009306;28;20037;-63
2022/12/01 10:22:26;;;;;;;0.00;0.00;;;5.80;99.90;;;;;;5012259;28;20034;-65
2022/12/01 10:24:58;;;;;;;0.00;0.00;;;5.70;99.90;;;;;;5011690;28;20080;-64
2022/12/01 10:27:49;;;;;;;0.00;0.00;;;5.70;99.90;;;;;;5011963;28;20479;-63
2022/12/01 10:30:17;;;;;;;0.00;0.00;;;5.70;99.90;;;;;;5004305;28;20029;-63
2022/12/01 10:32:51;;;;;;;0.00;0.00;;;5.80;99.90;;;;;;5019444;28;20037;-64
2022/12/01 10:35:20;;;;;;;0.00;0.00;;;5.80;99.90;;;;;;5007439;28;20111;-64
2022/12/01 10:37:59;;;;;;;0.00;0.00;;;5.90;99.90;;;;;;5008528;28;20472;-64
2022/12/01 10:40:26;;;;;;;0.00;0.00;;;5.90;99.90;;;;;;5004960;28;20030;-64
2022/12/01 10:42:52;;;;;;;0.00;0.00;;;5.80;99.90;;;;;;5002039;28;20034;-66
2022/12/01 10:45:29;;;;;;;0.00;0.00;;;5.90;99.90;;;;;;5003524;28;20204;-64
2022/12/01 10:48:17;;;;;;;0.00;0.00;;;5.90;99.90;;;;;;5001158;28;20033;-64
2022/12/01 10:50:54;;;;;;;0.00;0.00;;;5.90;99.90;;;;;;5006022;28;20046;-64
2022/12/01 10:53:28;;;;;;;0.00;0.00;;;5.90;99.90;;;;;;5008853;28;20032;-64
2022/12/01 10:56:13;;;;;;;0.00;0.00;;;5.70;99.90;;;;;;5019872;28;20026;-64
2022/12/01 10:58:54;;;;;;;0.00;0.00;;;5.80;99.90;;;;;;5007959;28;20029;-65
2022/12/01 11:01:22;;;;;;;0.00;0.00;;;5.90;99.90;;;;;;5007151;28;20025;-64
2022/12/01 11:04:00;;;;;;;0.00;0.00;;;5.90;99.90;;;;;;5008389;28;20459;-66
2022/12/01 11:06:28;;;;;;;0.00;0.00;;;5.80;99.90;;;;;;5006331;28;20042;-65
2022/12/01 11:08:59;;;;;;;0.00;0.00;;;5.90;99.90;;;;;;5003214;28;20478;-63
2022/12/01 11:11:28;;;;;;;0.00;0.00;;;5.90;99.90;;;;;;5009893;28;20352;-64
2022/12/01 11:13:56;;;;;;;0.00;0.00;;;5.90;99.90;;;;;;5010244;28;20033;-64
2022/12/01 11:16:40;;;;;;;0.00;0.00;;;5.90;99.90;;;;;;5007770;28;20041;-64
2022/12/01 11:19:20;;;;;;;0.00;0.00;;;5.90;99.90;;;;;;5010489;28;20022;-64
2022/12/01 11:21:51;;;;;;;0.00;0.00;;;5.90;99.90;;;;;;5008808;28;20113;-64
2022/12/01 11:24:25;;;;;;;0.00;0.00;;;5.80;99.90;;;;;;5002270;28;20463;-64
2022/12/01 11:26:51;;;;;;;0.00;0.00;;;5.80;99.90;;;;;;5008494;28;20029;-65
2022/12/01 11:29:26;;;;;;;0.00;0.00;;;5.80;99.90;;;;;;5006218;28;20036;-64
2022/12/01 11:31:52;;;;;;;0.00;0.00;;;5.80;99.90;;;;;;5005688;28;20026;-64
2022/12/01 11:34:28;;;;;;;;;;;5.80;99.90;;;;;;5008995;28;20021;-65
2022/12/01 11:37:06;;;;;;;0.00;0.00;;;5.90;99.90;;;;;;5005876;28;19913;-62
2022/12/01 11:39:40;;;;;;;0.00;0.00;;;5.90;99.90;;;;;;5002801;28;20105;-64
2022/12/01 11:42:12;;;;;;;0.00;0.00;;;6.00;99.90;;;;;;5006646;28;20056;-65
2022/12/01 11:44:39;;;;;;;0.00;0.00;;;6.00;99.90;;;;;;5010416;28;20041;-64
2022/12/01 11:47:14;;;;;;;0.00;0.00;;;6.00;99.90;;;;;;4975916;28;20043;-64
2022/12/01 11:49:43;;;;;;;0.00;0.00;;;6.10;99.90;;;;;;5009380;28;20033;-64
2022/12/01 11:52:29;;;;;;;0.00;0.00;;;6.10;99.90;;;;;;5000555;28;20179;-64
2022/12/01 11:54:58;;;;;;;0.00;0.00;;;6.00;99.90;;;;;;5009624;28;20515;-63
2022/12/01 11:57:25;;;;;;;0.00;0.00;;;6.10;99.90;;;;;;5010359;28;20212;-65
2022/12/01 11:59:51;;;;;;;0.00;0.00;;;6.00;99.90;;;;;;5005843;28;20112;-65
2022/12/01 12:02:29;;;;;;;0.00;0.00;;;6.00;99.90;;;;;;5007586;28;20528;-64
2022/12/01 12:05:22;;;;;;;0.00;0.00;;;6.00;99.90;;;;;;5008826;28;20037;-62
2022/12/01 12:08:22;;;;;;;0.00;0.00;;;6.10;99.90;;;;;;5009587;28;20583;-64
2022/12/01 12:11:02;;;;;;;0.00;0.00;;;6.10;99.90;;;;;;5005774;28;20026;-64
2022/12/01 12:13:58;;;;;;;0.00;0.00;;;6.10;99.90;;;;;;5007563;28;20034;-64
2022/12/01 12:16:30;;;;;;;0.00;0.00;;;6.20;99.90;;;;;;5004471;28;20042;-63
2022/12/01 12:19:14;;;;;;;0.00;0.00;;;6.30;99.90;;;;;;5009040;28;20021;-64
2022/12/01 12:22:04;;;;;;;0.00;0.00;;;6.30;99.90;;;;;;5007554;28;20107;-64
2022/12/01 12:24:33;;;;;;;0.00;0.00;;;6.20;99.90;;;;;;5010546;28;20133;-66
2022/12/01 12:27:36;;;;;;;0.00;0.00;;;6.20;99.90;;;;;;5009779;28;20554;-65
2022/12/01 12:30:35;;;;;;;0.00;0.00;;;6.20;99.90;;;;;;5009459;28;21213;-64
2022/12/01 12:33:07;;;;;;;0.00;0.00;;;6.00;99.90;;;;;;5007289;28;20033;-64
2022/12/01 12:36:04;;;;;;;0.00;0.00;;;6.10;99.90;;;;;;5008421;28;20030;-65
2022/12/01 12:38:51;;;;;;;0.00;0.00;;;6.10;99.90;;;;;;5002827;28;20120;-65
2022/12/01 12:41:35;;;;;;;0.00;0.00;;;6.10;99.90;;;;;;5001126;28;20074;-65
2022/12/01 12:44:18;;;;;;;0.00;0.00;;;6.10;99.90;;;;;;4999094;28;20066;-65
2022/12/01 12:47:13;;;;;;;0.00;0.00;;;6.10;99.90;;;;;;5005303;28;20652;-65
2022/12/01 12:49:55;;;;;;;0.00;0.00;;;6.00;99.90;;;;;;5002514;28;20057;-64
2022/12/01 12:52:39;;;;;;;0.00;0.00;;;6.00;99.90;;;;;;5004724;28;20026;-65
2022/12/01 12:55:14;;;;;;;0.00;0.00;;;6.00;99.90;;;;;;5009541;28;20449;-64
2022/12/01 12:57:47;;;;;;;0.00;0.00;;;6.10;99.90;;;;;;5009775;28;20033;-64
2022/12/01 13:00:17;;;;;;;0.00;0.00;;;6.10;99.90;;;;;;5008677;28;20125;-64
2022/12/01 13:03:12;;;;;;;0.00;0.00;;;6.10;99.90;;;;;;5009028;28;20034;-64
2022/12/01 13:05:57;;;;;;;0.00;0.00;;;6.20;99.90;;;;;;5006290;28;20234;-65
2022/12/01 13:08:46;;;;;;;0.00;0.00;;;6.20;99.90;;;;;;5006857;28;20038;-66
2022/12/01 13:11:16;;;;;;;0.00;0.00;;;6.30;99.90;;;;;;5006995;28;20112;-64
2022/12/01 13:13:57;;;;;;;0.00;0.00;;;6.30;99.90;;;;;;5013823;28;20026;-64
2022/12/01 13:16:29;;;;;;;0.00;0.00;;;6.30;99.90;;;;;;5007156;28;20086;-64
2022/12/01 13:19:04;;;;;;;0.00;0.00;;;6.30;99.90;;;;;;5008445;28;20036;-64